createdAt,value
2023-01-27T00:01:09.400Z,97400.47
2023-01-27T00:03:37.408Z,97402.25
2023-01-27T00:06:06.663Z,97402.84
2023-01-27T00:08:34.363Z,97396.69
2023-01-27T00:11:20.598Z,97394.28
2023-01-27T00:13:48.271Z,97393.06
2023-01-27T00:16:15.642Z,97391.69
2023-01-27T00:18:42.921Z,97397.09
2023-01-27T00:21:28.745Z,97399.09
2023-01-27T00:24:15.078Z,97395.69
2023-01-27T00:26:42.384Z,97393.50
2023-01-27T00:29:09.681Z,97388.69
2023-01-27T00:31:55.262Z,97392.50
2023-01-27T00:34:22.583Z,97391.69
2023-01-27T00:36:49.745Z,97381.31
2023-01-27T00:39:16.986Z,97390.69
2023-01-27T00:41:44.264Z,97390.31
2023-01-27T00:44:13.460Z,97388.31
2023-01-27T00:46:42.491Z,97390.47
2023-01-27T00:49:13.340Z,97391.47
2023-01-27T00:51:40.734Z,97398.88
2023-01-27T00:54:08.467Z,97397.06
2023-01-27T00:56:36.141Z,97397.69
2023-01-27T00:59:10.829Z,97408.28
2023-01-27T01:01:38.471Z,97407.28
2023-01-27T01:04:06.586Z,97407.69
2023-01-27T01:06:36.427Z,97409.88
2023-01-27T01:09:03.660Z,97408.66
2023-01-27T01:11:31.892Z,97404.28
2023-01-27T01:13:59.076Z,97401.84
2023-01-27T01:16:26.538Z,97396.63
2023-01-27T01:18:57.776Z,97399.63
2023-01-27T01:21:24.982Z,97402.66
2023-01-27T01:23:52.299Z,97392.84
2023-01-27T01:26:19.700Z,97390.66
2023-01-27T01:28:48.087Z,97394.84
2023-01-27T01:31:19.093Z,97390.25
2023-01-27T01:33:48.194Z,97380.69
2023-01-27T01:36:19.781Z,97386.47
2023-01-27T01:38:47.890Z,97381.66
2023-01-27T01:41:20.290Z,97382.25
2023-01-27T01:43:49.939Z,97386.47
2023-01-27T01:46:18.198Z,97383.88
2023-01-27T01:49:01.568Z,97384.84
2023-01-27T01:52:05.268Z,97384.47
2023-01-27T01:54:50.869Z,97382.06
2023-01-27T01:57:24.119Z,97378.88
2023-01-27T01:59:57.874Z,97378.47
2023-01-27T02:02:26.756Z,97378.88
2023-01-27T02:05:06.567Z,97379.09
2023-01-27T02:07:45.455Z,97370.66
2023-01-27T02:10:15.430Z,97376.06
2023-01-27T02:12:42.755Z,97369.25
2023-01-27T02:15:12.309Z,97368.69
2023-01-27T02:17:39.742Z,97368.88
2023-01-27T02:20:44.975Z,97370.44
2023-01-27T02:23:36.132Z,97366.09
2023-01-27T02:26:22.998Z,97366.25
2023-01-27T02:29:00.093Z,97370.09
2023-01-27T02:31:27.987Z,97372.69
2023-01-27T02:34:02.587Z,97369.50
2023-01-27T02:36:33.307Z,97366.69
2023-01-27T02:39:03.499Z,97366.50
2023-01-27T02:41:54.966Z,97365.50
2023-01-27T02:44:22.546Z,97373.47
2023-01-27T02:46:49.832Z,97372.88
2023-01-27T02:49:17.333Z,97370.88
2023-01-27T02:51:45.087Z,97360.09
2023-01-27T02:54:12.488Z,97366.69
2023-01-27T02:56:39.918Z,97361.69
2023-01-27T02:59:08.162Z,97364.50
2023-01-27T03:01:41.866Z,97368.47
2023-01-27T03:04:11.895Z,97365.88
2023-01-27T03:06:39.353Z,97375.31
2023-01-27T03:09:06.849Z,97377.69
2023-01-27T03:11:52.833Z,97363.72
2023-01-27T03:14:20.237Z,97368.91
2023-01-27T03:17:06.992Z,97364.91
2023-01-27T03:19:34.362Z,97366.09
2023-01-27T03:22:01.955Z,97355.69
2023-01-27T03:24:31.107Z,97357.09
2023-01-27T03:27:03.752Z,97358.50
2023-01-27T03:29:56.992Z,97358.91
2023-01-27T03:32:27.791Z,97358.69
2023-01-27T03:35:16.588Z,97354.50
2023-01-27T03:38:05.306Z,97343.69
2023-01-27T03:40:51.411Z,97344.69
2023-01-27T03:43:37.473Z,97342.09
2023-01-27T03:46:20.439Z,97346.69
2023-01-27T03:48:56.205Z,97344.91
2023-01-27T03:51:25.865Z,97344.50
2023-01-27T03:53:53.967Z,97346.09
2023-01-27T03:56:23.052Z,97344.50
2023-01-27T03:58:50.962Z,97347.72
2023-01-27T04:01:24.265Z,97336.50
2023-01-27T04:04:11.008Z,97336.91
2023-01-27T04:07:01.155Z,97338.91
2023-01-27T04:09:36.355Z,97346.09
2023-01-27T04:12:07.235Z,97336.13
2023-01-27T04:14:37.996Z,97334.28
2023-01-27T04:17:11.661Z,97331.72
2023-01-27T04:19:39.464Z,97336.09
2023-01-27T04:22:08.399Z,97336.09
2023-01-27T04:24:35.684Z,97336.88
2023-01-27T04:27:09.660Z,97330.50
2023-01-27T04:29:41.117Z,97337.13
2023-01-27T04:32:10.774Z,97348.09
2023-01-27T04:34:39.234Z,97341.50
2023-01-27T04:37:08.331Z,97349.72
2023-01-27T04:39:35.795Z,97354.69
2023-01-27T04:42:03.008Z,97345.69
2023-01-27T04:44:31.027Z,97348.91
2023-01-27T04:46:58.378Z,97348.28
2023-01-27T04:49:27.031Z,97347.69
2023-01-27T04:51:55.643Z,97339.50
2023-01-27T04:54:23.095Z,97347.91
2023-01-27T04:57:03.722Z,97345.50
2023-01-27T04:59:33.363Z,97344.69
2023-01-27T05:02:00.703Z,97347.09
2023-01-27T05:04:27.933Z,97349.69
2023-01-27T05:06:55.456Z,97352.09
2023-01-27T05:09:22.886Z,97346.50
2023-01-27T05:11:50.105Z,97345.69
2023-01-27T05:14:17.352Z,97347.88
2023-01-27T05:16:45.320Z,97348.28
2023-01-27T05:19:12.497Z,97351.88
2023-01-27T05:21:39.759Z,97348.47
2023-01-27T05:24:07.167Z,97347.66
2023-01-27T05:26:34.606Z,97350.25
2023-01-27T05:29:01.941Z,97339.88
2023-01-27T05:31:31.828Z,97348.28
2023-01-27T05:34:01.910Z,97346.88
2023-01-27T05:36:32.363Z,97354.28
2023-01-27T05:39:00.164Z,97352.47
2023-01-27T05:41:33.068Z,97350.66
2023-01-27T05:44:03.472Z,97348.88
2023-01-27T05:46:33.774Z,97348.91
2023-01-27T05:49:07.097Z,97350.88
2023-01-27T05:51:37.419Z,97350.47
2023-01-27T05:54:07.172Z,97357.25
2023-01-27T05:56:34.747Z,97354.47
2023-01-27T05:59:01.949Z,97358.47
2023-01-27T06:01:32.237Z,97351.50
2023-01-27T06:04:00.170Z,97356.06
2023-01-27T06:06:31.569Z,97363.47
2023-01-27T06:08:59.854Z,97356.69
2023-01-27T06:11:27.775Z,97358.09
2023-01-27T06:13:55.377Z,97361.25
2023-01-27T06:16:23.689Z,97367.88
2023-01-27T06:18:51.452Z,97363.69
2023-01-27T06:21:20.685Z,97364.28
2023-01-27T06:23:48.310Z,97363.69
2023-01-27T06:26:18.082Z,97361.28
2023-01-27T06:28:45.854Z,97357.88
2023-01-27T06:31:17.364Z,97358.50
2023-01-27T06:33:45.088Z,97369.69
2023-01-27T06:36:16.793Z,97366.50
2023-01-27T06:38:45.466Z,97369.28
2023-01-27T06:41:12.836Z,97369.28
2023-01-27T06:43:40.133Z,97367.88
2023-01-27T06:46:09.791Z,97369.09
2023-01-27T06:48:38.081Z,97373.09
2023-01-27T06:51:05.647Z,97366.09
2023-01-27T06:53:33.130Z,97373.47
2023-01-27T06:56:01.813Z,97377.69
2023-01-27T06:58:30.429Z,97380.09
2023-01-27T07:00:57.553Z,97378.09
2023-01-27T07:03:25.898Z,97382.91
2023-01-27T07:05:53.457Z,97379.47
2023-01-27T07:08:20.998Z,97383.69
2023-01-27T07:10:48.316Z,97387.88
2023-01-27T07:13:18.904Z,97385.09
2023-01-27T07:15:46.555Z,97379.69
2023-01-27T07:18:14.424Z,97385.88
2023-01-27T07:20:42.150Z,97387.25
2023-01-27T07:23:10.494Z,97383.66
2023-01-27T07:25:38.111Z,97392.09
2023-01-27T07:28:06.289Z,97389.28
2023-01-27T07:30:34.189Z,97389.28
2023-01-27T07:33:09.287Z,97384.28
2023-01-27T07:35:41.148Z,97382.09
2023-01-27T07:38:08.767Z,97384.47
2023-01-27T07:40:38.391Z,97387.50
2023-01-27T07:43:05.677Z,97385.44
2023-01-27T07:45:35.128Z,97390.25
2023-01-27T07:48:08.146Z,97386.47
2023-01-27T07:50:36.632Z,97388.47
2023-01-27T07:53:05.881Z,97395.47
2023-01-27T07:55:34.261Z,97390.69
2023-01-27T07:58:01.901Z,97401.31
2023-01-27T08:00:30.286Z,97399.25
2023-01-27T08:02:59.331Z,97391.28
2023-01-27T08:05:27.238Z,97396.69
2023-01-27T08:07:58.661Z,97392.50
2023-01-27T08:10:26.419Z,97393.88
2023-01-27T08:12:56.748Z,97395.28
2023-01-27T08:15:24.165Z,97390.28
2023-01-27T08:17:56.404Z,97390.09
2023-01-27T08:20:26.607Z,97398.91
2023-01-27T08:22:54.030Z,97405.91
2023-01-27T08:25:21.713Z,97399.50
2023-01-27T08:27:56.922Z,97409.09
2023-01-27T08:30:24.732Z,97407.28
2023-01-27T08:32:54.240Z,97409.88
2023-01-27T08:35:23.941Z,97412.69
2023-01-27T08:37:51.728Z,97414.50
2023-01-27T08:40:19.212Z,97416.28
2023-01-27T08:42:46.528Z,97409.88
2023-01-27T08:45:13.821Z,97414.66
2023-01-27T08:47:41.246Z,97416.28
2023-01-27T08:50:10.115Z,97418.06
2023-01-27T08:52:37.385Z,97419.69
2023-01-27T08:55:05.163Z,97420.09
2023-01-27T08:57:33.139Z,97426.50
2023-01-27T09:00:01.093Z,97430.66
2023-01-27T09:02:28.387Z,97426.91
2023-01-27T09:04:55.547Z,97428.91
2023-01-27T09:07:22.765Z,97431.50
2023-01-27T09:09:56.043Z,97436.09
2023-01-27T09:12:28.358Z,97429.91
2023-01-27T09:14:58.387Z,97432.69
2023-01-27T09:17:25.886Z,97432.50
2023-01-27T09:19:53.464Z,97427.69
2023-01-27T09:22:20.756Z,97427.28
2023-01-27T09:24:50.481Z,97421.09
2023-01-27T09:27:19.209Z,97425.69
2023-01-27T09:29:49.741Z,97427.88
2023-01-27T09:32:16.870Z,97421.09
2023-01-27T09:34:46.583Z,97431.72
2023-01-27T09:37:16.473Z,97424.09
2023-01-27T09:39:57.048Z,97423.28
2023-01-27T09:42:54.740Z,97427.28
2023-01-27T09:45:43.459Z,97417.91
2023-01-27T09:48:10.565Z,97424.25
2023-01-27T09:50:55.319Z,97427.25
2023-01-27T09:54:19.537Z,97419.22
2023-01-27T09:57:16.812Z,97425.09
2023-01-27T10:00:05.761Z,97429.09
2023-01-27T10:03:00.195Z,97418.09
2023-01-27T10:05:54.347Z,97414.41
2023-01-27T10:09:11.609Z,97412.84
2023-01-27T10:11:58.929Z,97411.63
2023-01-27T10:14:48.362Z,97414.47
2023-01-27T10:17:57.192Z,97411.69
2023-01-27T10:20:55.627Z,97413.09
2023-01-27T10:23:50.105Z,97428.47
2023-01-27T10:26:43.057Z,97432.72
2023-01-27T10:29:45.581Z,97416.44
2023-01-27T10:32:49.734Z,97418.84
2023-01-27T10:35:39.401Z,97414.81
2023-01-27T10:38:39.975Z,97417.28
2023-01-27T10:41:27.664Z,97425.47
2023-01-27T10:44:37.900Z,97428.47
2023-01-27T10:47:53.913Z,97417.88
2023-01-27T10:50:34.755Z,97430.03
2023-01-27T10:53:10.260Z,97422.44
2023-01-27T10:56:15.962Z,97422.06
2023-01-27T10:59:02.813Z,97431.06
2023-01-27T11:01:41.526Z,97436.09
2023-01-27T11:04:39.356Z,97432.47
2023-01-27T11:07:07.367Z,97435.50
2023-01-27T11:09:43.925Z,97429.28
2023-01-27T11:12:15.271Z,97433.47
2023-01-27T11:14:52.084Z,97423.91
2023-01-27T11:17:58.142Z,97423.69
2023-01-27T11:20:54.401Z,97429.69
2023-01-27T11:23:48.997Z,97428.69
2023-01-27T11:26:42.526Z,97427.28
2023-01-27T11:29:56.345Z,97416.13
2023-01-27T11:32:54.749Z,97417.28
2023-01-27T11:35:22.960Z,97418.09
2023-01-27T11:37:53.670Z,97422.28
2023-01-27T11:40:33.136Z,97412.69
2023-01-27T11:43:02.213Z,97420.50
2023-01-27T11:45:35.713Z,97414.91
2023-01-27T11:48:07.854Z,97419.50
2023-01-27T11:50:36.340Z,97414.09
2023-01-27T11:53:39.558Z,97419.50
2023-01-27T11:56:16.402Z,97408.69
2023-01-27T11:59:00.174Z,97418.88
2023-01-27T12:01:50.969Z,97415.06
2023-01-27T12:05:09.203Z,97411.47
2023-01-27T12:08:00.299Z,97414.88
2023-01-27T12:10:36.400Z,97413.88
2023-01-27T12:13:17.903Z,97407.88
2023-01-27T12:16:03.657Z,97413.28
2023-01-27T12:18:46.940Z,97413.88
2023-01-27T12:21:14.277Z,97410.50
2023-01-27T12:23:54.219Z,97410.28
2023-01-27T12:26:39.004Z,97405.91
2023-01-27T12:29:22.949Z,97403.69
2023-01-27T12:31:54.351Z,97408.09
2023-01-27T12:34:29.827Z,97408.06
2023-01-27T12:36:58.475Z,97406.47
2023-01-27T12:39:46.675Z,97405.91
2023-01-27T12:42:41.186Z,97396.66
2023-01-27T12:45:38.349Z,97398.16
2023-01-27T12:48:15.872Z,97395.91
2023-01-27T12:50:52.645Z,97403.44
2023-01-27T12:53:27.861Z,97401.66
2023-01-27T12:56:16.591Z,97402.88
2023-01-27T12:58:58.935Z,97403.13
2023-01-27T13:01:30.426Z,97393.09
2023-01-27T13:04:17.240Z,97399.28
2023-01-27T13:06:58.189Z,97402.28
2023-01-27T13:09:46.985Z,97406.09
2023-01-27T13:12:21.175Z,97400.88
2023-01-27T13:15:05.489Z,97402.72
2023-01-27T13:17:49.257Z,97400.50
2023-01-27T13:20:31.385Z,97407.31
2023-01-27T13:23:37.529Z,97409.09
2023-01-27T13:26:04.650Z,97403.91
2023-01-27T13:28:54.055Z,97414.09
2023-01-27T13:31:48.347Z,97403.28
2023-01-27T13:34:53.351Z,97417.88
2023-01-27T13:37:37.881Z,97413.28
2023-01-27T13:40:39.084Z,97422.09
2023-01-27T13:43:08.919Z,97414.91
2023-01-27T13:45:53.251Z,97426.28
2023-01-27T13:48:38.786Z,97426.66
2023-01-27T13:51:14.263Z,97424.88
2023-01-27T13:53:42.971Z,97431.09
2023-01-27T13:56:34.719Z,97428.84
2023-01-27T13:59:28.278Z,97427.25
2023-01-27T14:02:37.296Z,97422.78
2023-01-27T14:05:22.263Z,97426.63
2023-01-27T14:08:16.354Z,97427.41
2023-01-27T14:11:02.204Z,97436.59
2023-01-27T14:14:18.497Z,97439.00
2023-01-27T14:17:06.813Z,97444.22
2023-01-27T14:20:05.306Z,97440.19
2023-01-27T14:22:47.271Z,97429.22
2023-01-27T14:25:55.047Z,97439.94
2023-01-27T14:28:28.675Z,97448.56
2023-01-27T14:31:14.744Z,97457.78
2023-01-27T14:34:28.459Z,97443.41
2023-01-27T14:37:13.718Z,97447.16
2023-01-27T14:40:07.611Z,97447.19
2023-01-27T14:43:15.502Z,97446.75
2023-01-27T14:46:29.841Z,97449.56
2023-01-27T14:49:25.969Z,97462.00
2023-01-27T14:52:11.618Z,97459.59
2023-01-27T14:55:21.400Z,97464.03
2023-01-27T14:58:06.117Z,97465.44
2023-01-27T15:01:07.701Z,97469.84
2023-01-27T15:04:14.679Z,97472.63
2023-01-27T15:07:31.844Z,97477.66
2023-01-27T15:10:24.728Z,97492.16
2023-01-27T15:13:42.388Z,97485.59
2023-01-27T15:16:34.203Z,97496.81
2023-01-27T15:19:30.532Z,97489.22
2023-01-27T15:22:19.656Z,97495.41
2023-01-27T15:25:38.160Z,97489.22
2023-01-27T15:28:11.619Z,97498.59
2023-01-27T15:30:40.979Z,97505.19
2023-01-27T15:33:48.521Z,97504.22
2023-01-27T15:36:31.998Z,97510.31
2023-01-27T15:39:25.982Z,97511.56
2023-01-27T15:42:02.568Z,97508.75
2023-01-27T15:45:01.390Z,97513.97
2023-01-27T15:47:35.612Z,97501.59
2023-01-27T15:50:24.367Z,97494.81
2023-01-27T15:52:52.387Z,97485.81
2023-01-27T15:55:30.957Z,97475.78
2023-01-27T15:58:10.186Z,97488.00
2023-01-27T16:00:40.279Z,97483.19
2023-01-27T16:03:35.421Z,97487.81
2023-01-27T16:06:17.070Z,97485.59
2023-01-27T16:09:06.619Z,97499.59
2023-01-27T16:11:41.051Z,97496.38
2023-01-27T16:14:14.539Z,97497.16
2023-01-27T16:16:50.633Z,97500.94
2023-01-27T16:19:23.945Z,97489.38
2023-01-27T16:21:57.822Z,97482.38
2023-01-27T16:25:02.366Z,97489.97
2023-01-27T16:28:14.695Z,97492.72
2023-01-27T16:30:58.543Z,97495.53
2023-01-27T16:33:30.340Z,97497.91
2023-01-27T16:36:07.732Z,97506.16
2023-01-27T16:38:43.900Z,97510.72
2023-01-27T16:41:36.211Z,97519.72
2023-01-27T16:44:40.080Z,97521.34
2023-01-27T16:47:22.662Z,97524.91
2023-01-27T16:49:53.779Z,97524.50
2023-01-27T16:52:41.365Z,97525.56
2023-01-27T16:55:22.201Z,97523.00
2023-01-27T16:57:50.848Z,97510.72
2023-01-27T17:00:33.076Z,97516.94
2023-01-27T17:03:11.361Z,97524.72
2023-01-27T17:05:41.729Z,97511.91
2023-01-27T17:08:27.829Z,97522.88
2023-01-27T17:11:04.180Z,97522.69
2023-01-27T17:13:45.333Z,97525.72
2023-01-27T17:16:25.586Z,97530.91
2023-01-27T17:18:55.696Z,97534.47
2023-01-27T17:21:55.622Z,97535.91
2023-01-27T17:24:33.466Z,97529.91
2023-01-27T17:27:26.926Z,97538.31
2023-01-27T17:30:05.985Z,97532.13
2023-01-27T17:32:39.700Z,97540.06
2023-01-27T17:35:35.612Z,97529.69
2023-01-27T17:38:34.970Z,97528.50
2023-01-27T17:41:02.383Z,97536.28
2023-01-27T17:43:44.563Z,97528.72
2023-01-27T17:46:23.541Z,97536.94
2023-01-27T17:49:03.932Z,97541.88
2023-01-27T17:51:36.016Z,97535.69
2023-01-27T17:54:38.965Z,97535.47
2023-01-27T17:57:24.089Z,97545.50
2023-01-27T18:00:10.583Z,97541.66
2023-01-27T18:02:52.931Z,97537.88
2023-01-27T18:05:29.376Z,97541.47
2023-01-27T18:07:56.720Z,97543.16
2023-01-27T18:10:35.680Z,97548.38
2023-01-27T18:13:13.787Z,97547.09
2023-01-27T18:15:50.597Z,97551.88
2023-01-27T18:18:38.964Z,97548.47
2023-01-27T18:21:27.596Z,97556.31
2023-01-27T18:23:58.155Z,97560.31
2023-01-27T18:26:33.631Z,97566.53
2023-01-27T18:29:27.367Z,97560.09
2023-01-27T18:31:58.031Z,97561.63
2023-01-27T18:34:32.974Z,97568.09
2023-01-27T18:37:06.285Z,97560.31
2023-01-27T18:39:41.741Z,97559.88
2023-01-27T18:42:17.414Z,97577.09
2023-01-27T18:44:45.382Z,97573.06
2023-01-27T18:47:33.919Z,97570.13
2023-01-27T18:50:10.267Z,97573.69
2023-01-27T18:52:38.005Z,97581.31
2023-01-27T18:55:19.312Z,97577.03
2023-01-27T18:57:49.798Z,97579.69
2023-01-27T19:00:24.858Z,97579.19
2023-01-27T19:03:01.037Z,97581.84
2023-01-27T19:05:35.640Z,97577.00
2023-01-27T19:08:05.565Z,97586.13
2023-01-27T19:10:35.162Z,97584.50
2023-01-27T19:13:04.103Z,97582.78
2023-01-27T19:15:35.539Z,97593.28
2023-01-27T19:18:34.203Z,97591.72
2023-01-27T19:21:02.404Z,97597.69
2023-01-27T19:23:29.837Z,97596.53
2023-01-27T19:26:00.120Z,97592.03
2023-01-27T19:28:30.843Z,97603.63
2023-01-27T19:30:58.113Z,97605.06
2023-01-27T19:33:27.312Z,97600.50
2023-01-27T19:36:01.465Z,97603.88
2023-01-27T19:38:30.369Z,97607.06
2023-01-27T19:40:57.684Z,97605.44
2023-01-27T19:43:25.047Z,97606.59
2023-01-27T19:45:53.413Z,97608.22
2023-01-27T19:48:24.009Z,97603.16
2023-01-27T19:50:52.822Z,97605.59
2023-01-27T19:53:20.723Z,97609.06
2023-01-27T19:55:48.333Z,97613.56
2023-01-27T19:58:27.862Z,97610.66
2023-01-27T20:00:56.422Z,97616.91
2023-01-27T20:03:24.595Z,97618.34
2023-01-27T20:05:51.850Z,97617.00
2023-01-27T20:08:21.315Z,97609.25
2023-01-27T20:10:48.608Z,97615.22
2023-01-27T20:13:20.661Z,97618.41
2023-01-27T20:15:48.090Z,97619.44
2023-01-27T20:18:17.884Z,97623.47
2023-01-27T20:20:50.207Z,97616.41
2023-01-27T20:23:17.937Z,97614.72
2023-01-27T20:25:45.203Z,97622.25
2023-01-27T20:28:13.106Z,97623.97
2023-01-27T20:30:44.257Z,97631.31
2023-01-27T20:33:13.490Z,97637.66
2023-01-27T20:35:40.699Z,97630.44
2023-01-27T20:38:09.397Z,97630.84
2023-01-27T20:40:36.739Z,97628.84
2023-01-27T20:43:04.107Z,97633.81
2023-01-27T20:45:32.523Z,97632.41
2023-01-27T20:47:59.881Z,97627.34
2023-01-27T20:50:31.122Z,97627.44
2023-01-27T20:52:59.756Z,97631.91
2023-01-27T20:55:27.336Z,97625.50
2023-01-27T20:57:54.606Z,97625.44
2023-01-27T21:00:24.833Z,97620.69
2023-01-27T21:02:52.053Z,97626.88
2023-01-27T21:05:19.539Z,97627.13
2023-01-27T21:07:46.777Z,97640.56
2023-01-27T21:10:14.042Z,97637.00
2023-01-27T21:12:41.274Z,97631.00
2023-01-27T21:15:10.056Z,97634.59
2023-01-27T21:17:37.732Z,97635.72
2023-01-27T21:20:06.346Z,97632.41
2023-01-27T21:22:34.582Z,97632.47
2023-01-27T21:25:02.067Z,97639.03
2023-01-27T21:27:29.432Z,97636.28
2023-01-27T21:29:56.668Z,97627.59
2023-01-27T21:32:23.865Z,97626.00
2023-01-27T21:34:51.087Z,97634.19
2023-01-27T21:37:18.387Z,97634.06
2023-01-27T21:39:45.678Z,97636.25
2023-01-27T21:42:18.759Z,97635.91
2023-01-27T21:45:08.073Z,97637.34
2023-01-27T21:47:35.992Z,97641.03
2023-01-27T21:50:06.596Z,97629.44
2023-01-27T21:52:40.167Z,97633.47
2023-01-27T21:55:16.400Z,97638.09
2023-01-27T21:57:48.711Z,97635.38
2023-01-27T22:00:20.273Z,97643.28
2023-01-27T22:02:57.805Z,97634.13
2023-01-27T22:05:26.466Z,97633.91
2023-01-27T22:07:54.874Z,97641.34
2023-01-27T22:10:28.113Z,97633.56
2023-01-27T22:13:03.540Z,97637.91
2023-01-27T22:15:32.350Z,97634.50
2023-01-27T22:18:00.309Z,97631.31
2023-01-27T22:20:28.309Z,97627.25
2023-01-27T22:22:56.043Z,97628.44
2023-01-27T22:25:23.419Z,97621.88
2023-01-27T22:27:55.454Z,97626.91
2023-01-27T22:30:23.106Z,97626.50
2023-01-27T22:32:50.431Z,97629.31
2023-01-27T22:35:18.852Z,97632.91
2023-01-27T22:37:46.584Z,97616.47
2023-01-27T22:40:15.576Z,97631.75
2023-01-27T22:42:43.123Z,97632.63
2023-01-27T22:45:11.152Z,97632.00
2023-01-27T22:47:38.432Z,97633.94
2023-01-27T22:50:06.303Z,97623.66
2023-01-27T22:52:36.883Z,97627.78
2023-01-27T22:55:10.332Z,97622.00
2023-01-27T22:57:38.093Z,97624.53
2023-01-27T23:00:07.425Z,97626.19
2023-01-27T23:02:38.816Z,97627.03
2023-01-27T23:05:06.657Z,97632.56
2023-01-27T23:07:33.851Z,97623.13
2023-01-27T23:10:01.081Z,97626.06
2023-01-27T23:12:28.357Z,97624.03
2023-01-27T23:14:55.594Z,97624.78
2023-01-27T23:17:22.822Z,97616.56
2023-01-27T23:19:50.002Z,97613.53
2023-01-27T23:22:17.119Z,97612.28
2023-01-27T23:24:46.871Z,97614.53
2023-01-27T23:27:14.163Z,97607.88
2023-01-27T23:29:41.435Z,97602.75
2023-01-27T23:32:08.632Z,97610.63
2023-01-27T23:34:35.749Z,97605.91
2023-01-27T23:37:03.124Z,97609.34
2023-01-27T23:39:30.453Z,97613.06
2023-01-27T23:41:57.734Z,97604.09
2023-01-27T23:44:24.928Z,97609.84
2023-01-27T23:46:52.161Z,97613.69
2023-01-27T23:49:19.678Z,97607.03
2023-01-27T23:51:46.860Z,97618.91
2023-01-27T23:54:14.195Z,97606.91
2023-01-27T23:56:41.466Z,97605.00
2023-01-27T23:59:09.158Z,97604.72
